SANTA FE DAM CA US current weather conditions

sailwx.info

Wind from 242 at 3 knots gusting 5

Air temperature 25.6° C
Dewpoint 17.5° C

Last reported at 2015-Aug-03 15:57 UTC.
Time now 2015-Aug-03 17:14 UTC

Location: N 34°08' W 117°57'.
View on Google Maps.

See reports from other nearby stations

  
Tides and Currents Weather Stations Pressure Air Temp Water Temp Dewpoint Dewpoint Depression Visibility Wind Speed Wind Dir Waves Ship Positions
date/time (UTC)wind fromknots sea level pressurealtimeterstation pressurevisibilityair tempwater tempwave heightnotes
2015-Aug-03 15:57 242 3 gusting 5 25.6
2015-Aug-03 14:57 224 1 gusting 4 23.9
2015-Aug-03 13:57 306 2 gusting 4 20.0
2015-Aug-03 12:57 288 2 gusting 4 17.8
2015-Aug-03 11:57 263 2 gusting 5 17.8
2015-Aug-03 10:57 353 0 gusting 5 17.8
2015-Aug-03 09:57 264 3 gusting 6 19.4
2015-Aug-03 08:57 308 0 gusting 1 19.4
2015-Aug-03 07:57 052 0 gusting 3 19.4
2015-Aug-03 06:57 206 2 gusting 4 20.6
2015-Aug-03 05:57 210 2 gusting 4 20.6
2015-Aug-03 04:57 216 3 gusting 4 22.2
2015-Aug-03 03:57 237 3 gusting 9 23.3
2015-Aug-03 02:57 235 5 gusting 9 26.7
2015-Aug-03 01:57 218 6 gusting 13 28.3
2015-Aug-03 00:57 227 7 gusting 14 31.1
2015-Aug-02 23:57 233 6 gusting 15 33.3
2015-Aug-02 22:57 229 9 gusting 18 35.6
2015-Aug-02 21:57 221 7 gusting 14 35.6
2015-Aug-02 20:57 236 6 gusting 13 33.3
2015-Aug-02 19:57 206 5 gusting 13 33.3
2015-Aug-02 18:57 161 6 gusting 14 31.7
2015-Aug-02 17:57 004 4 gusting 9 28.9
2015-Aug-02 16:57 204 3 gusting 9 27.2
2015-Aug-02 15:57 252 5 gusting 8 25.0
2015-Aug-02 14:57 252 3 gusting 6 21.7
2015-Aug-02 13:57 254 2 gusting 4 20.6
2015-Aug-02 12:57 286 1 gusting 3 18.9
2015-Aug-02 11:57 272 2 gusting 2 18.3
2015-Aug-02 10:57 247 0 gusting 3 19.4
2015-Aug-02 09:57 225 1 gusting 2 18.9
2015-Aug-02 08:57 198 1 gusting 3 20.6
2015-Aug-02 07:57 225 2 gusting 3 20.0
2015-Aug-02 06:57 196 1 gusting 3 20.0
2015-Aug-02 05:57 220 2 gusting 6 21.7
2015-Aug-02 04:57 220 4 gusting 7 22.8
2015-Aug-02 03:57 227 4 gusting 7 24.4
2015-Aug-02 02:57 233 5 gusting 12 25.6
2015-Aug-02 01:57 237 6 gusting 13 30.0
2015-Aug-02 00:57 215 7 gusting 14 32.2
2015-Aug-01 23:57 228 8 gusting 15 33.3
2015-Aug-01 22:57 228 8 gusting 16 33.9
2015-Aug-01 21:57 212 8 gusting 19 35.6
2015-Aug-01 20:57 239 5 gusting 13 34.4
2015-Aug-01 19:57 216 4 gusting 10 33.3
2015-Aug-01 18:57 004 4 gusting 9 31.1
2015-Aug-01 17:57 356 4 gusting 9 28.9